sensor_id;sensor_type;location;lat;lon;timestamp;P1;durP1;ratioP1;P2;durP2;ratioP2
41829;SDS011;38614;43.472;23.936;2023-07-16T00:00:31;8.10;;;5.05;;
41829;SDS011;38614;43.472;23.936;2023-07-16T00:03:22;9.50;;;5.00;;
41829;SDS011;38614;43.472;23.936;2023-07-16T00:06:10;13.67;;;5.47;;
41829;SDS011;38614;43.472;23.936;2023-07-16T00:09:00;11.20;;;5.72;;
41829;SDS011;38614;43.472;23.936;2023-07-16T00:11:48;13.05;;;5.40;;
41829;SDS011;38614;43.472;23.936;2023-07-16T00:14:36;16.98;;;7.40;;
41829;SDS011;38614;43.472;23.936;2023-07-16T00:17:23;34.67;;;10.80;;
41829;SDS011;38614;43.472;23.936;2023-07-16T00:20:11;27.75;;;11.30;;
41829;SDS011;38614;43.472;23.936;2023-07-16T00:22:59;28.02;;;9.70;;
41829;SDS011;38614;43.472;23.936;2023-07-16T00:25:47;24.73;;;10.82;;
41829;SDS011;38614;43.472;23.936;2023-07-16T00:28:35;24.73;;;9.35;;
41829;SDS011;38614;43.472;23.936;2023-07-16T00:31:23;16.27;;;8.10;;
41829;SDS011;38614;43.472;23.936;2023-07-16T00:34:11;19.75;;;7.70;;
41829;SDS011;38614;43.472;23.936;2023-07-16T00:37:00;12.60;;;7.20;;
41829;SDS011;38614;43.472;23.936;2023-07-16T00:39:50;17.60;;;7.55;;
41829;SDS011;38614;43.472;23.936;2023-07-16T00:42:38;16.58;;;6.68;;
41829;SDS011;38614;43.472;23.936;2023-07-16T00:45:26;28.02;;;7.45;;
41829;SDS011;38614;43.472;23.936;2023-07-16T00:48:15;16.73;;;7.80;;
41829;SDS011;38614;43.472;23.936;2023-07-16T00:51:03;20.27;;;7.07;;
41829;SDS011;38614;43.472;23.936;2023-07-16T00:53:52;31.67;;;7.53;;
41829;SDS011;38614;43.472;23.936;2023-07-16T00:56:41;21.88;;;6.88;;
41829;SDS011;38614;43.472;23.936;2023-07-16T00:59:29;22.25;;;7.10;;
41829;SDS011;38614;43.472;23.936;2023-07-16T01:02:18;11.35;;;6.57;;
41829;SDS011;38614;43.472;23.936;2023-07-16T01:05:08;20.67;;;7.13;;
41829;SDS011;38614;43.472;23.936;2023-07-16T01:08:07;7.53;;;5.65;;
41829;SDS011;38614;43.472;23.936;2023-07-16T01:11:00;9.77;;;5.88;;
41829;SDS011;38614;43.472;23.936;2023-07-16T01:13:52;9.18;;;6.88;;
41829;SDS011;38614;43.472;23.936;2023-07-16T01:16:43;11.50;;;6.43;;
41829;SDS011;38614;43.472;23.936;2023-07-16T01:19:32;12.55;;;7.07;;
41829;SDS011;38614;43.472;23.936;2023-07-16T01:28:39;9.57;;;5.53;;
41829;SDS011;38614;43.472;23.936;2023-07-16T01:31:32;11.07;;;6.13;;
41829;SDS011;38614;43.472;23.936;2023-07-16T01:34:21;10.02;;;5.45;;
41829;SDS011;38614;43.472;23.936;2023-07-16T01:37:09;13.50;;;7.00;;
41829;SDS011;38614;43.472;23.936;2023-07-16T01:39:57;12.50;;;5.78;;
41829;SDS011;38614;43.472;23.936;2023-07-16T01:42:45;19.33;;;6.05;;
41829;SDS011;38614;43.472;23.936;2023-07-16T01:45:33;10.27;;;6.47;;
41829;SDS011;38614;43.472;23.936;2023-07-16T01:48:39;6.80;;;5.15;;
41829;SDS011;38614;43.472;23.936;2023-07-16T01:51:28;7.53;;;5.45;;
41829;SDS011;38614;43.472;23.936;2023-07-16T01:54:15;8.85;;;5.28;;
41829;SDS011;38614;43.472;23.936;2023-07-16T01:57:04;6.80;;;4.72;;
41829;SDS011;38614;43.472;23.936;2023-07-16T01:59:53;6.32;;;5.18;;
41829;SDS011;38614;43.472;23.936;2023-07-16T02:02:40;8.75;;;4.95;;
41829;SDS011;38614;43.472;23.936;2023-07-16T02:05:28;7.40;;;5.18;;
41829;SDS011;38614;43.472;23.936;2023-07-16T02:08:17;8.70;;;5.05;;
41829;SDS011;38614;43.472;23.936;2023-07-16T02:11:05;8.15;;;5.07;;
41829;SDS011;38614;43.472;23.936;2023-07-16T02:13:53;6.80;;;4.95;;
41829;SDS011;38614;43.472;23.936;2023-07-16T02:16:40;8.23;;;4.80;;
41829;SDS011;38614;43.472;23.936;2023-07-16T02:19:28;4.97;;;4.47;;
41829;SDS011;38614;43.472;23.936;2023-07-16T02:22:16;12.27;;;5.22;;
41829;SDS011;38614;43.472;23.936;2023-07-16T02:25:04;14.32;;;6.60;;
41829;SDS011;38614;43.472;23.936;2023-07-16T02:27:52;13.35;;;6.82;;
41829;SDS011;38614;43.472;23.936;2023-07-16T02:30:41;8.55;;;6.10;;
41829;SDS011;38614;43.472;23.936;2023-07-16T02:33:31;10.10;;;6.90;;
41829;SDS011;38614;43.472;23.936;2023-07-16T02:36:21;12.32;;;5.22;;
41829;SDS011;38614;43.472;23.936;2023-07-16T02:39:09;7.90;;;6.07;;
41829;SDS011;38614;43.472;23.936;2023-07-16T02:41:57;6.18;;;5.55;;
41829;SDS011;38614;43.472;23.936;2023-07-16T02:44:45;10.02;;;6.28;;
41829;SDS011;38614;43.472;23.936;2023-07-16T02:47:33;6.65;;;5.80;;
41829;SDS011;38614;43.472;23.936;2023-07-16T02:50:24;12.57;;;6.90;;
41829;SDS011;38614;43.472;23.936;2023-07-16T02:53:12;15.32;;;6.10;;
41829;SDS011;38614;43.472;23.936;2023-07-16T02:56:00;9.00;;;6.40;;
41829;SDS011;38614;43.472;23.936;2023-07-16T02:58:48;13.10;;;6.50;;
41829;SDS011;38614;43.472;23.936;2023-07-16T03:01:35;9.70;;;6.63;;
41829;SDS011;38614;43.472;23.936;2023-07-16T03:04:23;7.22;;;6.53;;
41829;SDS011;38614;43.472;23.936;2023-07-16T03:07:12;13.57;;;7.00;;
41829;SDS011;38614;43.472;23.936;2023-07-16T03:10:00;12.40;;;6.53;;
41829;SDS011;38614;43.472;23.936;2023-07-16T03:12:48;9.43;;;6.88;;
41829;SDS011;38614;43.472;23.936;2023-07-16T03:15:36;8.80;;;6.82;;
41829;SDS011;38614;43.472;23.936;2023-07-16T03:18:29;9.65;;;6.85;;
41829;SDS011;38614;43.472;23.936;2023-07-16T03:21:17;11.43;;;6.57;;
41829;SDS011;38614;43.472;23.936;2023-07-16T03:24:05;12.23;;;7.55;;
41829;SDS011;38614;43.472;23.936;2023-07-16T03:26:55;9.70;;;7.32;;
41829;SDS011;38614;43.472;23.936;2023-07-16T03:29:55;8.55;;;6.32;;
41829;SDS011;38614;43.472;23.936;2023-07-16T03:32:44;9.32;;;6.47;;
41829;SDS011;38614;43.472;23.936;2023-07-16T03:35:45;12.45;;;6.93;;
41829;SDS011;38614;43.472;23.936;2023-07-16T03:38:34;10.77;;;7.03;;
41829;SDS011;38614;43.472;23.936;2023-07-16T03:41:23;10.05;;;7.15;;
41829;SDS011;38614;43.472;23.936;2023-07-16T03:44:11;10.40;;;7.07;;
41829;SDS011;38614;43.472;23.936;2023-07-16T03:46:59;11.82;;;6.63;;
41829;SDS011;38614;43.472;23.936;2023-07-16T03:49:47;13.25;;;7.13;;
41829;SDS011;38614;43.472;23.936;2023-07-16T03:52:35;9.43;;;8.13;;
41829;SDS011;38614;43.472;23.936;2023-07-16T03:55:22;12.55;;;9.25;;
41829;SDS011;38614;43.472;23.936;2023-07-16T03:58:10;11.35;;;8.57;;
41829;SDS011;38614;43.472;23.936;2023-07-16T04:00:58;23.00;;;8.45;;
41829;SDS011;38614;43.472;23.936;2023-07-16T04:03:46;11.35;;;8.45;;
41829;SDS011;38614;43.472;23.936;2023-07-16T04:06:34;13.30;;;8.30;;
41829;SDS011;38614;43.472;23.936;2023-07-16T04:09:22;13.48;;;8.50;;
41829;SDS011;38614;43.472;23.936;2023-07-16T04:12:09;11.25;;;7.70;;
41829;SDS011;38614;43.472;23.936;2023-07-16T04:14:58;10.38;;;7.95;;
41829;SDS011;38614;43.472;23.936;2023-07-16T04:17:46;12.52;;;8.95;;
41829;SDS011;38614;43.472;23.936;2023-07-16T04:20:34;9.80;;;8.80;;
41829;SDS011;38614;43.472;23.936;2023-07-16T04:23:22;10.02;;;8.38;;
41829;SDS011;38614;43.472;23.936;2023-07-16T04:26:10;12.90;;;9.70;;
41829;SDS011;38614;43.472;23.936;2023-07-16T04:28:58;12.82;;;10.00;;
41829;SDS011;38614;43.472;23.936;2023-07-16T04:31:46;17.17;;;11.32;;
41829;SDS011;38614;43.472;23.936;2023-07-16T04:34:36;14.40;;;9.95;;
41829;SDS011;38614;43.472;23.936;2023-07-16T04:37:24;17.67;;;9.88;;
41829;SDS011;38614;43.472;23.936;2023-07-16T04:40:15;11.50;;;9.70;;
41829;SDS011;38614;43.472;23.936;2023-07-16T04:43:05;14.93;;;10.50;;
41829;SDS011;38614;43.472;23.936;2023-07-16T04:45:53;15.95;;;10.45;;
41829;SDS011;38614;43.472;23.936;2023-07-16T04:48:41;14.98;;;10.80;;
41829;SDS011;38614;43.472;23.936;2023-07-16T04:51:29;12.00;;;10.80;;
41829;SDS011;38614;43.472;23.936;2023-07-16T04:54:17;13.40;;;8.85;;
41829;SDS011;38614;43.472;23.936;2023-07-16T04:57:08;14.75;;;10.50;;
41829;SDS011;38614;43.472;23.936;2023-07-16T04:59:57;14.32;;;11.35;;
41829;SDS011;38614;43.472;23.936;2023-07-16T05:02:44;14.32;;;10.70;;
41829;SDS011;38614;43.472;23.936;2023-07-16T05:05:32;12.80;;;10.10;;
41829;SDS011;38614;43.472;23.936;2023-07-16T05:08:22;15.10;;;11.15;;
41829;SDS011;38614;43.472;23.936;2023-07-16T05:11:11;30.02;;;11.05;;
41829;SDS011;38614;43.472;23.936;2023-07-16T05:16:52;16.27;;;10.35;;
41829;SDS011;38614;43.472;23.936;2023-07-16T05:19:43;20.83;;;10.40;;
41829;SDS011;38614;43.472;23.936;2023-07-16T05:22:32;10.85;;;9.45;;
41829;SDS011;38614;43.472;23.936;2023-07-16T05:25:20;33.40;;;10.90;;
41829;SDS011;38614;43.472;23.936;2023-07-16T05:28:08;25.77;;;10.45;;
41829;SDS011;38614;43.472;23.936;2023-07-16T05:30:59;12.57;;;10.23;;
41829;SDS011;38614;43.472;23.936;2023-07-16T05:33:47;10.00;;;9.00;;
41829;SDS011;38614;43.472;23.936;2023-07-16T05:36:35;16.15;;;9.50;;
41829;SDS011;38614;43.472;23.936;2023-07-16T05:39:23;13.95;;;7.75;;
41829;SDS011;38614;43.472;23.936;2023-07-16T05:42:11;9.25;;;8.00;;
41829;SDS011;38614;43.472;23.936;2023-07-16T05:44:59;15.73;;;9.15;;
41829;SDS011;38614;43.472;23.936;2023-07-16T05:47:46;16.20;;;9.23;;
41829;SDS011;38614;43.472;23.936;2023-07-16T05:50:35;12.10;;;8.63;;
41829;SDS011;38614;43.472;23.936;2023-07-16T05:53:22;12.43;;;7.88;;
41829;SDS011;38614;43.472;23.936;2023-07-16T05:56:10;9.30;;;6.53;;
41829;SDS011;38614;43.472;23.936;2023-07-16T05:58:58;11.27;;;7.68;;
41829;SDS011;38614;43.472;23.936;2023-07-16T06:01:46;13.48;;;8.60;;
41829;SDS011;38614;43.472;23.936;2023-07-16T06:04:34;11.52;;;7.28;;
41829;SDS011;38614;43.472;23.936;2023-07-16T06:07:22;11.30;;;7.47;;
41829;SDS011;38614;43.472;23.936;2023-07-16T06:10:10;16.83;;;9.15;;
41829;SDS011;38614;43.472;23.936;2023-07-16T06:12:58;14.02;;;8.90;;
41829;SDS011;38614;43.472;23.936;2023-07-16T06:15:46;15.00;;;8.73;;
41829;SDS011;38614;43.472;23.936;2023-07-16T06:18:35;11.57;;;8.82;;
41829;SDS011;38614;43.472;23.936;2023-07-16T06:21:23;9.23;;;8.20;;
41829;SDS011;38614;43.472;23.936;2023-07-16T06:24:10;12.82;;;7.97;;
41829;SDS011;38614;43.472;23.936;2023-07-16T06:27:01;15.07;;;9.00;;
41829;SDS011;38614;43.472;23.936;2023-07-16T06:29:41;15.60;;;9.98;;
41829;SDS011;38614;43.472;23.936;2023-07-16T06:32:32;12.50;;;9.90;;
41829;SDS011;38614;43.472;23.936;2023-07-16T06:35:20;18.42;;;9.25;;
41829;SDS011;38614;43.472;23.936;2023-07-16T06:38:10;19.58;;;8.25;;
41829;SDS011;38614;43.472;23.936;2023-07-16T06:41:01;10.98;;;8.15;;
41829;SDS011;38614;43.472;23.936;2023-07-16T06:43:49;18.48;;;8.10;;
41829;SDS011;38614;43.472;23.936;2023-07-16T06:46:37;14.13;;;7.00;;
41829;SDS011;38614;43.472;23.936;2023-07-16T06:49:25;8.20;;;6.88;;
41829;SDS011;38614;43.472;23.936;2023-07-16T06:52:20;21.48;;;8.15;;
41829;SDS011;38614;43.472;23.936;2023-07-16T06:55:08;17.13;;;6.80;;
41829;SDS011;38614;43.472;23.936;2023-07-16T06:57:56;10.27;;;7.25;;
41829;SDS011;38614;43.472;23.936;2023-07-16T07:00:44;9.75;;;6.43;;
41829;SDS011;38614;43.472;23.936;2023-07-16T07:03:32;9.05;;;5.93;;
41829;SDS011;38614;43.472;23.936;2023-07-16T07:06:25;10.65;;;7.03;;
41829;SDS011;38614;43.472;23.936;2023-07-16T07:09:13;9.60;;;6.20;;
41829;SDS011;38614;43.472;23.936;2023-07-16T07:12:03;7.47;;;6.60;;
41829;SDS011;38614;43.472;23.936;2023-07-16T07:14:52;8.07;;;5.95;;
41829;SDS011;38614;43.472;23.936;2023-07-16T07:17:42;12.18;;;6.25;;
41829;SDS011;38614;43.472;23.936;2023-07-16T07:20:33;12.05;;;6.53;;
41829;SDS011;38614;43.472;23.936;2023-07-16T07:23:21;7.15;;;5.75;;
41829;SDS011;38614;43.472;23.936;2023-07-16T07:26:09;10.45;;;6.28;;
41829;SDS011;38614;43.472;23.936;2023-07-16T07:28:59;7.53;;;5.72;;
41829;SDS011;38614;43.472;23.936;2023-07-16T07:31:47;8.65;;;6.38;;
41829;SDS011;38614;43.472;23.936;2023-07-16T07:34:35;6.25;;;5.65;;
41829;SDS011;38614;43.472;23.936;2023-07-16T07:37:23;14.27;;;6.47;;
41829;SDS011;38614;43.472;23.936;2023-07-16T07:40:11;14.52;;;5.47;;
41829;SDS011;38614;43.472;23.936;2023-07-16T07:42:59;9.80;;;6.43;;
41829;SDS011;38614;43.472;23.936;2023-07-16T07:45:50;9.80;;;4.70;;
41829;SDS011;38614;43.472;23.936;2023-07-16T07:48:40;4.97;;;4.10;;
41829;SDS011;38614;43.472;23.936;2023-07-16T07:51:30;10.43;;;3.95;;
41829;SDS011;38614;43.472;23.936;2023-07-16T07:54:18;6.70;;;3.10;;
41829;SDS011;38614;43.472;23.936;2023-07-16T07:57:09;14.73;;;4.57;;
41829;SDS011;38614;43.472;23.936;2023-07-16T07:59:57;4.35;;;2.95;;
41829;SDS011;38614;43.472;23.936;2023-07-16T08:02:45;5.50;;;3.10;;
41829;SDS011;38614;43.472;23.936;2023-07-16T08:05:35;3.47;;;3.28;;
41829;SDS011;38614;43.472;23.936;2023-07-16T08:08:26;7.00;;;3.57;;
41829;SDS011;38614;43.472;23.936;2023-07-16T08:11:14;4.57;;;3.70;;
41829;SDS011;38614;43.472;23.936;2023-07-16T08:14:04;7.47;;;3.78;;
41829;SDS011;38614;43.472;23.936;2023-07-16T08:16:52;3.67;;;3.38;;
41829;SDS011;38614;43.472;23.936;2023-07-16T08:19:42;8.13;;;3.28;;
41829;SDS011;38614;43.472;23.936;2023-07-16T08:22:30;6.80;;;3.47;;
41829;SDS011;38614;43.472;23.936;2023-07-16T08:25:18;13.38;;;3.65;;
41829;SDS011;38614;43.472;23.936;2023-07-16T08:28:06;10.73;;;3.50;;
41829;SDS011;38614;43.472;23.936;2023-07-16T08:30:54;9.02;;;3.88;;
41829;SDS011;38614;43.472;23.936;2023-07-16T08:33:42;5.40;;;3.35;;
41829;SDS011;38614;43.472;23.936;2023-07-16T08:36:30;6.43;;;3.75;;
41829;SDS011;38614;43.472;23.936;2023-07-16T08:39:20;6.22;;;4.13;;
41829;SDS011;38614;43.472;23.936;2023-07-16T08:42:12;11.65;;;3.80;;
41829;SDS011;38614;43.472;23.936;2023-07-16T08:45:00;8.13;;;3.55;;
41829;SDS011;38614;43.472;23.936;2023-07-16T08:47:47;4.63;;;3.78;;
41829;SDS011;38614;43.472;23.936;2023-07-16T08:50:35;10.60;;;4.05;;
41829;SDS011;38614;43.472;23.936;2023-07-16T08:53:24;8.70;;;3.08;;
41829;SDS011;38614;43.472;23.936;2023-07-16T08:56:12;4.00;;;3.53;;
41829;SDS011;38614;43.472;23.936;2023-07-16T08:58:59;6.45;;;4.03;;
41829;SDS011;38614;43.472;23.936;2023-07-16T09:01:48;10.05;;;3.63;;
41829;SDS011;38614;43.472;23.936;2023-07-16T09:04:38;4.50;;;3.38;;
41829;SDS011;38614;43.472;23.936;2023-07-16T09:07:26;4.13;;;3.05;;
41829;SDS011;38614;43.472;23.936;2023-07-16T09:10:14;7.15;;;3.65;;
41829;SDS011;38614;43.472;23.936;2023-07-16T09:13:02;9.75;;;4.10;;
41829;SDS011;38614;43.472;23.936;2023-07-16T09:15:50;9.15;;;3.65;;
41829;SDS011;38614;43.472;23.936;2023-07-16T09:18:39;5.63;;;3.03;;
41829;SDS011;38614;43.472;23.936;2023-07-16T09:21:27;6.03;;;3.78;;
41829;SDS011;38614;43.472;23.936;2023-07-16T09:24:18;9.40;;;3.45;;
41829;SDS011;38614;43.472;23.936;2023-07-16T09:27:10;7.10;;;2.97;;
41829;SDS011;38614;43.472;23.936;2023-07-16T09:29:58;4.30;;;3.08;;
41829;SDS011;38614;43.472;23.936;2023-07-16T09:32:49;9.27;;;3.20;;
41829;SDS011;38614;43.472;23.936;2023-07-16T09:35:36;9.02;;;2.90;;
41829;SDS011;38614;43.472;23.936;2023-07-16T09:38:24;6.72;;;3.30;;
41829;SDS011;38614;43.472;23.936;2023-07-16T09:41:12;10.15;;;2.97;;
41829;SDS011;38614;43.472;23.936;2023-07-16T09:43:59;7.65;;;3.00;;
41829;SDS011;38614;43.472;23.936;2023-07-16T09:46:47;5.75;;;2.25;;
41829;SDS011;38614;43.472;23.936;2023-07-16T09:49:34;4.57;;;2.92;;
41829;SDS011;38614;43.472;23.936;2023-07-16T09:52:22;4.53;;;2.67;;
41829;SDS011;38614;43.472;23.936;2023-07-16T09:55:16;4.75;;;3.13;;
41829;SDS011;38614;43.472;23.936;2023-07-16T09:58:09;3.00;;;2.58;;
41829;SDS011;38614;43.472;23.936;2023-07-16T10:01:06;7.55;;;2.50;;
41829;SDS011;38614;43.472;23.936;2023-07-16T10:03:55;5.90;;;2.90;;
41829;SDS011;38614;43.472;23.936;2023-07-16T10:06:52;11.88;;;3.17;;
41829;SDS011;38614;43.472;23.936;2023-07-16T10:09:50;4.88;;;3.00;;
41829;SDS011;38614;43.472;23.936;2023-07-16T10:12:40;4.72;;;2.88;;
41829;SDS011;38614;43.472;23.936;2023-07-16T10:15:28;6.45;;;2.67;;
41829;SDS011;38614;43.472;23.936;2023-07-16T10:18:23;9.20;;;2.80;;
41829;SDS011;38614;43.472;23.936;2023-07-16T10:21:11;7.88;;;2.28;;
41829;SDS011;38614;43.472;23.936;2023-07-16T10:24:16;5.78;;;3.10;;
41829;SDS011;38614;43.472;23.936;2023-07-16T10:27:04;12.02;;;3.13;;
41829;SDS011;38614;43.472;23.936;2023-07-16T10:29:51;6.78;;;2.65;;
41829;SDS011;38614;43.472;23.936;2023-07-16T10:32:41;3.53;;;3.10;;
41829;SDS011;38614;43.472;23.936;2023-07-16T10:35:34;4.30;;;2.58;;
41829;SDS011;38614;43.472;23.936;2023-07-16T10:38:21;9.00;;;2.90;;
41829;SDS011;38614;43.472;23.936;2023-07-16T10:41:09;6.57;;;2.60;;
41829;SDS011;38614;43.472;23.936;2023-07-16T10:43:57;6.72;;;2.75;;
41829;SDS011;38614;43.472;23.936;2023-07-16T10:46:47;8.35;;;3.05;;
41829;SDS011;38614;43.472;23.936;2023-07-16T10:49:35;3.08;;;2.65;;
41829;SDS011;38614;43.472;23.936;2023-07-16T10:52:22;3.10;;;2.17;;
41829;SDS011;38614;43.472;23.936;2023-07-16T10:55:10;15.38;;;6.28;;
41829;SDS011;38614;43.472;23.936;2023-07-16T10:57:58;5.55;;;2.95;;
41829;SDS011;38614;43.472;23.936;2023-07-16T11:00:45;59.33;;;20.45;;
41829;SDS011;38614;43.472;23.936;2023-07-16T11:03:34;5.13;;;3.80;;
41829;SDS011;38614;43.472;23.936;2023-07-16T11:06:22;5.95;;;2.85;;
41829;SDS011;38614;43.472;23.936;2023-07-16T11:09:10;9.10;;;2.83;;
41829;SDS011;38614;43.472;23.936;2023-07-16T11:12:09;5.93;;;3.63;;
41829;SDS011;38614;43.472;23.936;2023-07-16T11:14:59;13.48;;;3.80;;
41829;SDS011;38614;43.472;23.936;2023-07-16T11:17:50;5.53;;;3.10;;
41829;SDS011;38614;43.472;23.936;2023-07-16T11:23:25;6.10;;;2.80;;
41829;SDS011;38614;43.472;23.936;2023-07-16T11:26:14;4.95;;;2.85;;
41829;SDS011;38614;43.472;23.936;2023-07-16T11:29:12;16.27;;;3.97;;
41829;SDS011;38614;43.472;23.936;2023-07-16T11:31:59;6.93;;;2.50;;
41829;SDS011;38614;43.472;23.936;2023-07-16T11:34:57;4.65;;;2.38;;
41829;SDS011;38614;43.472;23.936;2023-07-16T11:37:46;4.20;;;3.20;;
41829;SDS011;38614;43.472;23.936;2023-07-16T11:40:37;7.05;;;3.08;;
41829;SDS011;38614;43.472;23.936;2023-07-16T11:43:26;3.63;;;3.15;;
41829;SDS011;38614;43.472;23.936;2023-07-16T11:46:16;6.13;;;3.00;;
41829;SDS011;38614;43.472;23.936;2023-07-16T11:49:05;4.03;;;2.38;;
41829;SDS011;38614;43.472;23.936;2023-07-16T11:51:53;16.63;;;3.50;;
41829;SDS011;38614;43.472;23.936;2023-07-16T11:54:40;2.58;;;2.22;;
41829;SDS011;38614;43.472;23.936;2023-07-16T11:57:28;8.35;;;2.63;;
41829;SDS011;38614;43.472;23.936;2023-07-16T12:00:27;5.47;;;2.83;;
41829;SDS011;38614;43.472;23.936;2023-07-16T12:03:33;3.50;;;2.97;;
41829;SDS011;38614;43.472;23.936;2023-07-16T12:06:21;2.95;;;2.75;;
41829;SDS011;38614;43.472;23.936;2023-07-16T12:09:08;4.15;;;2.38;;
41829;SDS011;38614;43.472;23.936;2023-07-16T12:11:56;8.95;;;2.65;;
41829;SDS011;38614;43.472;23.936;2023-07-16T12:14:44;8.27;;;2.85;;
41829;SDS011;38614;43.472;23.936;2023-07-16T12:20:22;4.57;;;2.35;;
41829;SDS011;38614;43.472;23.936;2023-07-16T12:23:09;7.38;;;2.75;;
41829;SDS011;38614;43.472;23.936;2023-07-16T12:25:57;8.90;;;2.83;;
41829;SDS011;38614;43.472;23.936;2023-07-16T12:28:45;8.35;;;3.33;;
41829;SDS011;38614;43.472;23.936;2023-07-16T12:34:23;5.75;;;3.13;;
41829;SDS011;38614;43.472;23.936;2023-07-16T12:37:13;8.07;;;2.90;;
41829;SDS011;38614;43.472;23.936;2023-07-16T12:40:01;10.05;;;3.03;;
41829;SDS011;38614;43.472;23.936;2023-07-16T12:42:49;7.00;;;2.92;;
41829;SDS011;38614;43.472;23.936;2023-07-16T12:45:36;4.93;;;2.97;;
41829;SDS011;38614;43.472;23.936;2023-07-16T12:48:24;13.20;;;3.00;;
41829;SDS011;38614;43.472;23.936;2023-07-16T12:51:11;3.17;;;2.70;;
41829;SDS011;38614;43.472;23.936;2023-07-16T12:53:59;7.82;;;2.67;;
41829;SDS011;38614;43.472;23.936;2023-07-16T12:56:47;3.22;;;2.85;;
41829;SDS011;38614;43.472;23.936;2023-07-16T12:59:35;5.45;;;2.15;;
41829;SDS011;38614;43.472;23.936;2023-07-16T13:02:23;8.23;;;3.08;;
41829;SDS011;38614;43.472;23.936;2023-07-16T13:05:10;3.92;;;2.55;;
41829;SDS011;38614;43.472;23.936;2023-07-16T13:07:58;8.48;;;3.25;;
41829;SDS011;38614;43.472;23.936;2023-07-16T13:10:45;7.93;;;3.15;;
41829;SDS011;38614;43.472;23.936;2023-07-16T13:13:33;3.60;;;2.65;;
41829;SDS011;38614;43.472;23.936;2023-07-16T13:16:20;4.13;;;2.25;;
41829;SDS011;38614;43.472;23.936;2023-07-16T13:19:11;6.45;;;2.33;;
41829;SDS011;38614;43.472;23.936;2023-07-16T13:21:58;3.67;;;2.10;;
41829;SDS011;38614;43.472;23.936;2023-07-16T13:24:46;3.42;;;2.72;;
41829;SDS011;38614;43.472;23.936;2023-07-16T13:27:34;5.05;;;3.22;;
41829;SDS011;38614;43.472;23.936;2023-07-16T13:30:22;3.75;;;2.75;;
41829;SDS011;38614;43.472;23.936;2023-07-16T13:33:09;3.53;;;2.67;;
41829;SDS011;38614;43.472;23.936;2023-07-16T13:35:57;2.78;;;2.40;;
41829;SDS011;38614;43.472;23.936;2023-07-16T13:38:48;3.83;;;2.63;;
41829;SDS011;38614;43.472;23.936;2023-07-16T13:41:36;8.18;;;2.97;;
41829;SDS011;38614;43.472;23.936;2023-07-16T13:44:24;6.50;;;3.10;;
41829;SDS011;38614;43.472;23.936;2023-07-16T13:47:13;3.30;;;2.13;;
41829;SDS011;38614;43.472;23.936;2023-07-16T13:50:01;5.93;;;3.25;;
41829;SDS011;38614;43.472;23.936;2023-07-16T13:52:49;12.32;;;3.53;;
41829;SDS011;38614;43.472;23.936;2023-07-16T13:55:36;5.45;;;3.15;;
41829;SDS011;38614;43.472;23.936;2023-07-16T13:58:24;5.30;;;3.03;;
41829;SDS011;38614;43.472;23.936;2023-07-16T14:01:11;3.50;;;2.88;;
41829;SDS011;38614;43.472;23.936;2023-07-16T14:03:59;6.70;;;3.33;;
41829;SDS011;38614;43.472;23.936;2023-07-16T14:26:35;17.50;;;9.38;;
41829;SDS011;38614;43.472;23.936;2023-07-16T14:29:23;19.80;;;9.30;;
41829;SDS011;38614;43.472;23.936;2023-07-16T14:34:32;17.10;;;9.18;;
41829;SDS011;38614;43.472;23.936;2023-07-16T14:38:30;15.15;;;8.95;;
41829;SDS011;38614;43.472;23.936;2023-07-16T14:42:34;10.50;;;5.63;;
41829;SDS011;38614;43.472;23.936;2023-07-16T14:45:22;7.93;;;5.45;;
41829;SDS011;38614;43.472;23.936;2023-07-16T14:48:10;5.45;;;4.78;;
41829;SDS011;38614;43.472;23.936;2023-07-16T14:50:58;6.85;;;5.07;;
41829;SDS011;38614;43.472;23.936;2023-07-16T14:53:46;9.65;;;4.70;;
41829;SDS011;38614;43.472;23.936;2023-07-16T14:56:34;16.40;;;4.95;;
41829;SDS011;38614;43.472;23.936;2023-07-16T14:59:23;9.50;;;4.75;;
41829;SDS011;38614;43.472;23.936;2023-07-16T15:02:11;8.05;;;5.13;;
41829;SDS011;38614;43.472;23.936;2023-07-16T15:04:59;5.00;;;4.45;;
41829;SDS011;38614;43.472;23.936;2023-07-16T15:07:54;6.75;;;4.43;;
41829;SDS011;38614;43.472;23.936;2023-07-16T15:10:43;6.63;;;4.65;;
41829;SDS011;38614;43.472;23.936;2023-07-16T15:13:31;10.10;;;5.25;;
41829;SDS011;38614;43.472;23.936;2023-07-16T15:16:19;6.97;;;5.05;;
41829;SDS011;38614;43.472;23.936;2023-07-16T15:19:07;4.97;;;4.43;;
41829;SDS011;38614;43.472;23.936;2023-07-16T15:21:56;5.70;;;4.63;;
41829;SDS011;38614;43.472;23.936;2023-07-16T15:24:44;6.05;;;4.93;;
41829;SDS011;38614;43.472;23.936;2023-07-16T15:27:35;5.75;;;5.00;;
41829;SDS011;38614;43.472;23.936;2023-07-16T15:30:24;9.13;;;4.65;;
41829;SDS011;38614;43.472;23.936;2023-07-16T15:33:19;6.63;;;4.68;;
41829;SDS011;38614;43.472;23.936;2023-07-16T15:36:09;5.70;;;4.95;;
41829;SDS011;38614;43.472;23.936;2023-07-16T15:39:01;9.40;;;5.35;;
41829;SDS011;38614;43.472;23.936;2023-07-16T15:41:49;13.82;;;5.47;;
41829;SDS011;38614;43.472;23.936;2023-07-16T15:44:37;7.90;;;4.65;;
41829;SDS011;38614;43.472;23.936;2023-07-16T15:47:32;6.20;;;4.65;;
41829;SDS011;38614;43.472;23.936;2023-07-16T15:50:20;13.15;;;5.25;;
41829;SDS011;38614;43.472;23.936;2023-07-16T15:53:08;6.50;;;5.32;;
41829;SDS011;38614;43.472;23.936;2023-07-16T15:55:56;5.82;;;4.50;;
41829;SDS011;38614;43.472;23.936;2023-07-16T15:58:44;9.48;;;5.18;;
41829;SDS011;38614;43.472;23.936;2023-07-16T16:01:32;9.15;;;4.60;;
41829;SDS011;38614;43.472;23.936;2023-07-16T16:04:20;7.25;;;4.97;;
41829;SDS011;38614;43.472;23.936;2023-07-16T16:07:08;6.32;;;4.47;;
41829;SDS011;38614;43.472;23.936;2023-07-16T16:10:01;11.30;;;4.70;;
41829;SDS011;38614;43.472;23.936;2023-07-16T16:12:50;12.85;;;5.63;;
41829;SDS011;38614;43.472;23.936;2023-07-16T16:15:38;13.55;;;5.10;;
41829;SDS011;38614;43.472;23.936;2023-07-16T16:18:26;9.02;;;5.32;;
41829;SDS011;38614;43.472;23.936;2023-07-16T16:21:15;6.90;;;5.25;;
41829;SDS011;38614;43.472;23.936;2023-07-16T16:24:03;8.65;;;5.40;;
41829;SDS011;38614;43.472;23.936;2023-07-16T16:26:52;9.20;;;5.22;;
41829;SDS011;38614;43.472;23.936;2023-07-16T16:29:40;8.25;;;4.18;;
41829;SDS011;38614;43.472;23.936;2023-07-16T16:32:28;12.00;;;5.10;;
41829;SDS011;38614;43.472;23.936;2023-07-16T16:35:16;7.35;;;4.95;;
41829;SDS011;38614;43.472;23.936;2023-07-16T16:38:04;4.70;;;4.30;;
41829;SDS011;38614;43.472;23.936;2023-07-16T16:47:54;3.25;;;2.35;;
41829;SDS011;38614;43.472;23.936;2023-07-16T16:50:42;6.82;;;2.92;;
41829;SDS011;38614;43.472;23.936;2023-07-16T16:53:30;4.75;;;2.90;;
41829;SDS011;38614;43.472;23.936;2023-07-16T16:56:18;3.67;;;2.80;;
41829;SDS011;38614;43.472;23.936;2023-07-16T16:59:06;2.88;;;2.47;;
41829;SDS011;38614;43.472;23.936;2023-07-16T17:01:54;7.05;;;2.35;;
41829;SDS011;38614;43.472;23.936;2023-07-16T17:04:42;4.35;;;3.20;;
41829;SDS011;38614;43.472;23.936;2023-07-16T17:07:31;4.15;;;3.03;;
41829;SDS011;38614;43.472;23.936;2023-07-16T17:10:19;6.95;;;2.47;;
41829;SDS011;38614;43.472;23.936;2023-07-16T17:13:07;7.05;;;3.33;;
41829;SDS011;38614;43.472;23.936;2023-07-16T17:15:55;18.27;;;3.55;;
41829;SDS011;38614;43.472;23.936;2023-07-16T17:18:43;4.03;;;3.05;;
41829;SDS011;38614;43.472;23.936;2023-07-16T17:21:31;8.93;;;3.20;;
41829;SDS011;38614;43.472;23.936;2023-07-16T17:24:19;5.43;;;2.80;;